Saxon, Washington
Current Conditions -  °F | °C
As of 8:08 AM on Thursday 23 Oct 2014 (Local Time) from KBLI Reporting Station
Light Rain Light Rain  
Wind Chill: 54°   Ceiling: 2100
Heat Index: 54°   Visibility: 10mi
Dew Point: 46°   Wind: 17mph
Humidity: 77%   Direction: 150°SSE
Pressure: 29.68"   Gusts: 29mph
Location:  48.6897°N, 122.171°W
Report Text: KBLI 231508Z 15015G25KT 10SM -RA BKN021 BKN065 OVC110 12/08 A2968 RMK AO2 P0000
Loading
Personal Weather Stations






























Interactive Weather Map
Tropical Storm Tracking
New forecast layout! Learn more

10-Day Weather Forecast

Advertisements
Track Severe Weather on mobile